createdAt,value
2022-11-05T00:00:06.927Z,11.37
2022-11-05T00:02:53.905Z,8.70
2022-11-05T00:05:50.805Z,12.53
2022-11-05T00:08:36.431Z,18.17
2022-11-05T00:11:04.181Z,10.60
2022-11-05T00:13:49.827Z,10.50
2022-11-05T00:16:43.308Z,8.57
2022-11-05T00:19:13.492Z,8.60
2022-11-05T00:21:58.865Z,8.03
2022-11-05T00:24:44.369Z,9.43
2022-11-05T00:27:12.147Z,8.77
2022-11-05T00:29:39.873Z,10.70
2022-11-05T00:32:07.605Z,9.83
2022-11-05T00:34:36.654Z,9.90
2022-11-05T00:37:04.353Z,9.17
2022-11-05T00:39:32.082Z,8.33
2022-11-05T00:42:17.199Z,13.70
2022-11-05T00:45:03.257Z,13.87
2022-11-05T00:47:49.970Z,17.60
2022-11-05T00:50:20.364Z,13.17
2022-11-05T00:52:57.729Z,12.50
2022-11-05T00:55:28.242Z,8.40
2022-11-05T00:57:56.790Z,15.83
2022-11-05T01:00:26.237Z,12.80
2022-11-05T01:02:54.129Z,9.70
2022-11-05T01:05:23.261Z,9.50
2022-11-05T01:07:52.638Z,8.07
2022-11-05T01:10:20.540Z,8.33
2022-11-05T01:12:48.263Z,9.60
2022-11-05T01:15:16.608Z,8.30
2022-11-05T01:17:44.329Z,9.33
2022-11-05T01:20:12.743Z,9.07
2022-11-05T01:22:41.773Z,12.67
2022-11-05T01:25:10.459Z,10.03
2022-11-05T01:27:39.468Z,11.97
2022-11-05T01:30:09.106Z,8.30
2022-11-05T01:32:37.764Z,10.20
2022-11-05T01:35:06.561Z,11.87
2022-11-05T01:37:35.303Z,11.80
2022-11-05T01:40:05.495Z,9.47
2022-11-05T01:42:33.785Z,10.73
2022-11-05T01:45:05.165Z,14.40
2022-11-05T01:47:43.813Z,13.13
2022-11-05T01:50:24.934Z,10.90
2022-11-05T01:53:00.109Z,9.63
2022-11-05T01:55:32.371Z,9.00
2022-11-05T01:58:02.241Z,11.80
2022-11-05T02:00:29.995Z,11.20
2022-11-05T02:02:58.429Z,12.97
2022-11-05T02:05:26.549Z,10.30
2022-11-05T02:07:55.916Z,9.70
2022-11-05T02:10:24.840Z,13.70
2022-11-05T02:12:54.450Z,14.63
2022-11-05T02:15:33.309Z,9.80
2022-11-05T02:18:16.154Z,11.50
2022-11-05T02:20:53.376Z,15.10
2022-11-05T02:23:52.298Z,10.23
2022-11-05T02:27:01.812Z,10.40
2022-11-05T02:30:21.738Z,10.00
2022-11-05T02:33:01.934Z,9.03
2022-11-05T02:35:46.987Z,12.27
2022-11-05T02:38:24.129Z,12.43
2022-11-05T02:41:05.014Z,12.53
2022-11-05T02:43:43.498Z,12.67
2022-11-05T02:46:20.119Z,10.63
2022-11-05T02:48:55.816Z,14.07
2022-11-05T02:51:28.532Z,15.90
2022-11-05T02:54:03.497Z,21.50
2022-11-05T02:56:34.966Z,14.47
2022-11-05T02:59:02.686Z,15.27
2022-11-05T03:01:30.461Z,14.23
2022-11-05T03:04:01.743Z,17.00
2022-11-05T03:07:02.168Z,14.33
2022-11-05T03:09:44.693Z,12.43
2022-11-05T03:12:22.346Z,14.47
2022-11-05T03:14:57.531Z,13.63
2022-11-05T03:17:34.158Z,12.63
2022-11-05T03:20:15.071Z,12.70
2022-11-05T03:22:47.319Z,10.93
2022-11-05T03:25:20.580Z,13.77
2022-11-05T03:27:51.747Z,12.13
2022-11-05T03:30:20.756Z,15.40
2022-11-05T03:32:51.861Z,11.03
2022-11-05T03:35:25.161Z,11.87
2022-11-05T03:37:57.879Z,12.63
2022-11-05T03:40:27.141Z,11.73
2022-11-05T03:42:58.987Z,14.10
2022-11-05T03:45:30.137Z,11.93
2022-11-05T03:48:01.036Z,11.57
2022-11-05T03:50:40.915Z,11.63
2022-11-05T03:53:15.193Z,10.57
2022-11-05T03:55:51.081Z,12.53
2022-11-05T03:58:20.819Z,9.60
2022-11-05T04:00:49.572Z,13.10
2022-11-05T04:03:17.602Z,12.67
2022-11-05T04:06:07.226Z,12.70
2022-11-05T04:08:52.567Z,12.40
2022-11-05T04:11:37.951Z,11.67
2022-11-05T04:14:05.653Z,12.00
2022-11-05T04:16:59.153Z,11.60
2022-11-05T04:19:40.817Z,12.80
2022-11-05T04:22:27.404Z,12.73
2022-11-05T04:24:55.113Z,10.43
2022-11-05T04:27:22.814Z,11.30
2022-11-05T04:30:07.979Z,15.37
2022-11-05T04:32:35.684Z,11.77
2022-11-05T04:35:03.392Z,9.37
2022-11-05T04:37:32.386Z,10.40
2022-11-05T04:40:00.113Z,12.40
2022-11-05T04:42:29.303Z,13.27
2022-11-05T04:44:57.012Z,9.90
2022-11-05T04:47:24.672Z,8.60
2022-11-05T04:49:52.405Z,13.07
2022-11-05T04:52:20.144Z,10.57
2022-11-05T04:54:49.184Z,9.63
2022-11-05T04:57:16.852Z,12.23
2022-11-05T04:59:44.551Z,10.33
2022-11-05T05:02:12.282Z,11.10
2022-11-05T05:04:40.018Z,10.30
2022-11-05T05:07:07.792Z,12.53
2022-11-05T05:09:35.483Z,14.33
2022-11-05T05:12:04.681Z,11.87
2022-11-05T05:14:32.370Z,12.77
2022-11-05T05:17:00.049Z,10.57
2022-11-05T05:19:28.014Z,10.67
2022-11-05T05:21:54.764Z,12.40
2022-11-05T05:24:24.948Z,11.17
2022-11-05T05:26:52.752Z,13.03
2022-11-05T05:29:21.784Z,11.50
2022-11-05T05:31:49.461Z,10.57
2022-11-05T05:34:17.201Z,12.00
2022-11-05T05:36:44.880Z,12.33
2022-11-05T05:39:14.050Z,12.73
2022-11-05T05:41:41.710Z,10.07
2022-11-05T05:44:09.465Z,11.30
2022-11-05T05:46:38.483Z,11.20
2022-11-05T05:49:11.208Z,12.43
2022-11-05T05:51:40.009Z,13.03
2022-11-05T05:54:07.747Z,12.43
2022-11-05T05:56:35.443Z,12.40
2022-11-05T05:59:03.118Z,11.37
2022-11-05T06:01:31.024Z,11.10
2022-11-05T06:04:00.188Z,14.43
2022-11-05T06:06:27.943Z,10.87
2022-11-05T06:08:56.105Z,9.23
2022-11-05T06:11:23.924Z,14.63
2022-11-05T06:13:51.794Z,8.30
2022-11-05T06:16:20.341Z,10.17
2022-11-05T06:18:48.469Z,13.63
2022-11-05T06:21:18.956Z,11.53
2022-11-05T06:23:48.361Z,10.83
2022-11-05T06:26:17.793Z,12.83
2022-11-05T06:28:46.356Z,11.07
2022-11-05T06:31:15.493Z,13.37
2022-11-05T06:33:43.218Z,12.53
2022-11-05T06:36:15.023Z,13.30
2022-11-05T06:38:44.327Z,11.33
2022-11-05T06:41:12.164Z,11.23
2022-11-05T06:43:40.057Z,11.07
2022-11-05T06:46:08.501Z,10.67
2022-11-05T06:48:36.249Z,12.23
2022-11-05T06:51:04.599Z,14.93
2022-11-05T06:53:32.740Z,9.47
2022-11-05T06:56:04.821Z,11.67
2022-11-05T06:58:32.650Z,10.50
2022-11-05T07:01:04.188Z,9.70
2022-11-05T07:03:32.259Z,11.97
2022-11-05T07:06:00.735Z,14.30
2022-11-05T07:08:28.759Z,13.90
2022-11-05T07:10:56.448Z,10.47
2022-11-05T07:13:25.472Z,10.80
2022-11-05T07:15:53.234Z,15.60
2022-11-05T07:18:20.961Z,10.60
2022-11-05T07:20:49.342Z,11.60
2022-11-05T07:23:17.504Z,13.13
2022-11-05T07:25:45.384Z,16.77
2022-11-05T07:28:14.394Z,13.37
2022-11-05T07:30:43.490Z,11.73
2022-11-05T07:33:11.616Z,14.27
2022-11-05T07:35:39.510Z,12.35
2022-11-05T07:38:07.210Z,12.03
2022-11-05T07:40:34.895Z,15.10
2022-11-05T07:43:02.921Z,11.47
2022-11-05T07:45:32.315Z,12.20
2022-11-05T07:48:02.815Z,12.07
2022-11-05T07:50:32.606Z,14.03
2022-11-05T07:53:04.074Z,13.47
2022-11-05T07:55:31.872Z,10.10
2022-11-05T07:57:59.723Z,13.97
2022-11-05T08:00:28.747Z,10.03
2022-11-05T08:03:09.263Z,14.27
2022-11-05T08:05:39.827Z,11.80
2022-11-05T08:08:09.824Z,17.73
2022-11-05T08:10:38.362Z,17.53
2022-11-05T08:13:07.264Z,12.53
2022-11-05T08:15:35.971Z,13.60
2022-11-05T08:18:06.456Z,22.10
2022-11-05T08:20:35.418Z,10.93
2022-11-05T08:23:03.135Z,10.90
2022-11-05T08:25:30.911Z,10.97
2022-11-05T08:28:00.650Z,10.40
2022-11-05T08:30:29.521Z,11.60
2022-11-05T08:33:01.771Z,10.73
2022-11-05T08:35:31.060Z,7.83
2022-11-05T08:38:00.547Z,17.87
2022-11-05T08:40:28.770Z,9.87
2022-11-05T08:42:58.017Z,9.37
2022-11-05T08:45:25.796Z,12.33
2022-11-05T08:48:00.422Z,9.70
2022-11-05T08:50:28.227Z,9.73
2022-11-05T08:52:57.482Z,10.70
2022-11-05T08:55:25.311Z,9.60
2022-11-05T08:58:00.688Z,13.37
2022-11-05T09:00:30.635Z,9.87
2022-11-05T09:02:59.967Z,11.13
2022-11-05T09:05:27.908Z,9.23
2022-11-05T09:08:00.915Z,10.33
2022-11-05T09:10:29.365Z,12.50
2022-11-05T09:12:57.243Z,11.13
2022-11-05T09:15:25.061Z,10.27
2022-11-05T09:17:52.999Z,8.93
2022-11-05T09:20:20.709Z,11.20
2022-11-05T09:22:48.720Z,8.73
2022-11-05T09:25:18.042Z,10.10
2022-11-05T09:27:45.806Z,7.10
2022-11-05T09:30:14.638Z,6.70
2022-11-05T09:32:42.624Z,9.93
2022-11-05T09:35:11.123Z,6.57
2022-11-05T09:37:38.927Z,8.57
2022-11-05T09:40:08.211Z,13.40
2022-11-05T09:42:41.463Z,9.60
2022-11-05T09:45:14.798Z,10.45
2022-11-05T09:47:45.330Z,8.47
2022-11-05T09:50:17.854Z,9.90
2022-11-05T09:52:46.228Z,6.97
2022-11-05T09:55:22.564Z,8.80
2022-11-05T09:57:56.733Z,8.77
2022-11-05T10:00:24.542Z,6.47
2022-11-05T10:02:55.651Z,9.03
2022-11-05T10:05:25.319Z,10.80
2022-11-05T10:07:59.053Z,8.23
2022-11-05T10:10:37.938Z,9.37
2022-11-05T10:13:16.922Z,5.97
2022-11-05T10:16:01.210Z,8.47
2022-11-05T10:18:34.099Z,8.07
2022-11-05T10:21:02.506Z,8.70
2022-11-05T10:23:30.691Z,9.90
2022-11-05T10:26:02.540Z,8.20
2022-11-05T10:28:34.148Z,6.17
2022-11-05T10:31:04.951Z,9.73
2022-11-05T10:33:36.587Z,8.90
2022-11-05T10:36:07.740Z,10.13
2022-11-05T10:38:35.541Z,8.73
2022-11-05T10:41:19.149Z,8.57
2022-11-05T10:43:51.278Z,6.83
2022-11-05T10:46:32.630Z,9.57
2022-11-05T10:49:18.563Z,6.85
2022-11-05T10:51:47.437Z,9.57
2022-11-05T10:54:23.694Z,6.97
2022-11-05T10:56:51.657Z,5.65
2022-11-05T10:59:25.183Z,8.87
2022-11-05T11:02:02.655Z,13.95
2022-11-05T11:04:37.468Z,9.68
2022-11-05T11:07:06.074Z,7.43
2022-11-05T11:09:37.385Z,9.52
2022-11-05T11:12:08.407Z,6.13
2022-11-05T11:14:37.532Z,11.63
2022-11-05T11:17:26.696Z,7.90
2022-11-05T11:20:18.859Z,6.72
2022-11-05T11:23:01.314Z,7.88
2022-11-05T11:25:31.155Z,11.38
2022-11-05T11:28:04.060Z,7.85
2022-11-05T11:30:33.856Z,10.25
2022-11-05T11:33:10.239Z,4.88
2022-11-05T11:35:39.677Z,7.80
2022-11-05T11:38:08.402Z,12.10
2022-11-05T11:40:38.981Z,8.02
2022-11-05T11:43:23.581Z,8.10
2022-11-05T11:45:54.811Z,7.83
2022-11-05T11:48:26.017Z,5.93
2022-11-05T11:50:53.828Z,7.35
2022-11-05T11:53:36.177Z,4.70
2022-11-05T11:56:13.606Z,7.55
2022-11-05T11:58:44.267Z,7.03
2022-11-05T12:01:38.069Z,6.97
2022-11-05T12:04:18.933Z,4.85
2022-11-05T12:06:52.305Z,9.00
2022-11-05T12:09:27.069Z,8.85
2022-11-05T12:12:01.244Z,7.25
2022-11-05T12:14:35.662Z,7.55
2022-11-05T12:17:14.968Z,7.53
2022-11-05T12:19:58.736Z,9.80
2022-11-05T12:22:36.567Z,9.53
2022-11-05T12:25:22.700Z,8.13
2022-11-05T12:28:11.341Z,6.93
2022-11-05T12:30:49.787Z,5.85
2022-11-05T12:33:35.087Z,7.70
2022-11-05T12:36:11.440Z,6.63
2022-11-05T12:38:59.291Z,7.10
2022-11-05T12:41:30.599Z,5.27
2022-11-05T12:44:15.221Z,5.85
2022-11-05T12:46:52.461Z,5.60
2022-11-05T12:49:34.586Z,6.80
2022-11-05T12:52:19.845Z,5.60
2022-11-05T12:55:04.091Z,7.40
2022-11-05T12:57:35.506Z,8.13
2022-11-05T13:00:08.229Z,5.17
2022-11-05T13:02:41.726Z,5.90
2022-11-05T13:05:17.786Z,6.43
2022-11-05T13:07:52.522Z,5.83
2022-11-05T13:10:28.947Z,5.17
2022-11-05T13:13:03.542Z,10.87
2022-11-05T13:15:36.924Z,9.00
2022-11-05T13:18:10.864Z,8.07
2022-11-05T13:20:44.183Z,5.00
2022-11-05T13:23:18.551Z,7.15
2022-11-05T13:25:50.324Z,8.03
2022-11-05T13:28:36.394Z,7.33
2022-11-05T13:31:10.919Z,9.37
2022-11-05T13:33:43.236Z,5.93
2022-11-05T13:36:33.980Z,6.40
2022-11-05T13:39:15.097Z,7.23
2022-11-05T13:42:14.430Z,7.43
2022-11-05T13:45:00.833Z,6.73
2022-11-05T13:47:42.285Z,5.53
2022-11-05T13:50:37.689Z,6.83
2022-11-05T13:53:28.303Z,5.63
2022-11-05T13:56:02.767Z,5.43
2022-11-05T13:58:47.340Z,5.97
2022-11-05T14:01:29.965Z,6.60
2022-11-05T14:03:58.240Z,4.97
2022-11-05T14:06:28.816Z,4.90
2022-11-05T14:09:03.680Z,4.40
2022-11-05T14:11:34.885Z,5.50
2022-11-05T14:14:05.877Z,7.00
2022-11-05T14:16:49.118Z,5.97
2022-11-05T14:19:34.537Z,4.03
2022-11-05T14:22:38.922Z,5.37
2022-11-05T14:25:57.388Z,4.57
2022-11-05T14:28:45.267Z,4.23
2022-11-05T14:31:41.053Z,3.93
2022-11-05T14:34:22.386Z,4.43
2022-11-05T14:37:18.589Z,4.43
2022-11-05T14:39:46.581Z,5.93
2022-11-05T14:42:18.373Z,5.43
2022-11-05T14:45:18.997Z,6.40
2022-11-05T14:47:54.235Z,7.60
2022-11-05T14:50:27.189Z,6.10
2022-11-05T14:52:58.245Z,5.33
2022-11-05T14:55:32.696Z,8.17
2022-11-05T14:58:29.969Z,8.07
2022-11-05T15:00:59.585Z,6.90
2022-11-05T15:03:47.110Z,7.30
2022-11-05T15:06:25.022Z,8.47
2022-11-05T15:09:04.668Z,7.23
2022-11-05T15:11:37.822Z,9.70
2022-11-05T15:14:08.368Z,7.67
2022-11-05T15:16:44.024Z,4.40
2022-11-05T15:19:19.137Z,4.40
2022-11-05T15:21:47.281Z,7.20
2022-11-05T15:24:18.567Z,4.13
2022-11-05T15:26:55.152Z,6.07
2022-11-05T15:29:26.828Z,4.43
2022-11-05T15:31:56.419Z,7.53
2022-11-05T15:34:25.742Z,4.63
2022-11-05T15:36:56.191Z,4.27
2022-11-05T15:39:29.929Z,3.67
2022-11-05T15:41:58.583Z,5.27
2022-11-05T15:44:31.582Z,3.67
2022-11-05T15:47:18.970Z,6.80
2022-11-05T15:49:48.494Z,6.63
2022-11-05T15:52:18.410Z,4.20
2022-11-05T15:54:46.230Z,4.40
2022-11-05T15:57:31.985Z,7.30
2022-11-05T15:59:59.854Z,6.77
2022-11-05T16:02:32.774Z,6.43
2022-11-05T16:05:02.574Z,5.93
2022-11-05T16:07:30.899Z,10.80
2022-11-05T16:10:00.588Z,10.13
2022-11-05T16:12:36.399Z,5.80
2022-11-05T16:15:20.067Z,7.00
2022-11-05T16:17:52.234Z,9.23
2022-11-05T16:20:23.263Z,7.07
2022-11-05T16:22:55.100Z,7.90
2022-11-05T16:25:27.906Z,14.53
2022-11-05T16:27:56.088Z,7.40
2022-11-05T16:30:24.234Z,7.60
2022-11-05T16:32:53.859Z,6.47
2022-11-05T16:35:23.372Z,8.33
2022-11-05T16:37:52.634Z,5.83
2022-11-05T16:40:22.655Z,8.93
2022-11-05T16:42:51.518Z,5.97
2022-11-05T16:45:21.584Z,11.00
2022-11-05T16:47:49.643Z,17.70
2022-11-05T16:50:23.175Z,12.73
2022-11-05T16:52:51.845Z,9.67
2022-11-05T16:55:20.451Z,9.10
2022-11-05T16:57:52.035Z,10.43
2022-11-05T17:00:21.529Z,10.60
2022-11-05T17:02:49.700Z,8.80
2022-11-05T17:05:21.771Z,11.73
2022-11-05T17:07:49.572Z,10.33
2022-11-05T17:10:17.751Z,9.00
2022-11-05T17:12:46.696Z,14.97
2022-11-05T17:15:20.452Z,13.20
2022-11-05T17:17:49.076Z,10.43
2022-11-05T17:20:38.346Z,12.87
2022-11-05T17:23:08.497Z,12.47
2022-11-05T17:25:36.320Z,11.77
2022-11-05T17:28:05.895Z,10.03
2022-11-05T17:30:33.850Z,17.07
2022-11-05T17:33:01.650Z,13.20
2022-11-05T17:35:30.756Z,14.00
2022-11-05T17:37:58.490Z,16.70
2022-11-05T17:40:28.347Z,12.33
2022-11-05T17:42:56.362Z,12.27
2022-11-05T17:45:24.142Z,15.10
2022-11-05T17:47:51.851Z,11.07
2022-11-05T17:50:19.688Z,14.30
2022-11-05T17:52:48.799Z,17.80
2022-11-05T17:55:19.431Z,13.20
2022-11-05T17:57:48.893Z,19.13
2022-11-05T18:00:18.413Z,17.70
2022-11-05T18:02:48.533Z,20.87
2022-11-05T18:05:16.840Z,19.47
2022-11-05T18:07:45.158Z,16.07
2022-11-05T18:10:14.524Z,15.77
2022-11-05T18:12:42.847Z,16.00
2022-11-05T18:15:11.673Z,14.03
2022-11-05T18:17:39.639Z,20.43
2022-11-05T18:20:14.199Z,19.25
2022-11-05T18:22:45.633Z,23.30
2022-11-05T18:25:14.971Z,19.53
2022-11-05T18:27:42.813Z,16.17
2022-11-05T18:30:13.933Z,15.20
2022-11-05T18:32:42.199Z,15.53
2022-11-05T18:35:10.687Z,14.13
2022-11-05T18:37:39.286Z,14.70
2022-11-05T18:40:08.432Z,13.37
2022-11-05T18:42:37.620Z,14.37
2022-11-05T18:45:06.659Z,16.43
2022-11-05T18:47:34.520Z,13.10
2022-11-05T18:50:02.397Z,12.03
2022-11-05T18:52:31.955Z,13.50
2022-11-05T18:55:00.118Z,12.03
2022-11-05T18:57:28.039Z,14.63
2022-11-05T18:59:57.081Z,12.83
2022-11-05T19:02:24.966Z,16.73
2022-11-05T19:05:26.605Z,12.87
2022-11-05T19:07:40.844Z,13.27
2022-11-05T19:10:09.551Z,12.30
2022-11-05T19:12:37.302Z,15.33
2022-11-05T19:15:08.085Z,14.33
2022-11-05T19:17:37.131Z,14.87
2022-11-05T19:20:06.094Z,16.97
2022-11-05T19:22:33.901Z,15.43
2022-11-05T19:25:01.732Z,13.03
2022-11-05T19:27:29.539Z,15.20
2022-11-05T19:29:57.335Z,12.07
2022-11-05T19:32:26.393Z,16.00
2022-11-05T19:34:54.106Z,14.07
2022-11-05T19:37:21.806Z,11.97
2022-11-05T19:39:49.593Z,17.43
2022-11-05T19:42:17.433Z,14.60
2022-11-05T19:44:45.203Z,11.60
2022-11-05T19:47:12.986Z,15.57
2022-11-05T19:49:42.084Z,16.50
2022-11-05T19:52:09.848Z,14.50
2022-11-05T19:54:38.612Z,16.33
2022-11-05T19:57:06.588Z,12.77
2022-11-05T19:59:34.399Z,12.53
2022-11-05T20:02:02.246Z,10.67
2022-11-05T20:04:30.279Z,13.17
2022-11-05T20:06:59.384Z,12.83
2022-11-05T20:09:27.300Z,14.73
2022-11-05T20:11:56.471Z,12.17
2022-11-05T20:14:25.451Z,13.80
2022-11-05T20:16:53.536Z,13.83
2022-11-05T20:19:23.087Z,11.87
2022-11-05T20:21:50.893Z,12.30
2022-11-05T20:24:25.167Z,14.30
2022-11-05T20:26:53.902Z,9.60
2022-11-05T20:29:22.095Z,13.70
2022-11-05T20:31:53.392Z,13.80
2022-11-05T20:34:21.119Z,16.97
2022-11-05T20:36:48.884Z,15.13
2022-11-05T20:39:18.169Z,14.33
2022-11-05T20:41:47.277Z,19.70
2022-11-05T20:44:15.532Z,13.10
2022-11-05T20:46:43.369Z,17.60
2022-11-05T20:49:11.082Z,16.00
2022-11-05T20:51:38.825Z,14.50
2022-11-05T20:54:06.750Z,15.03
2022-11-05T20:56:35.779Z,15.87
2022-11-05T20:59:05.412Z,13.30
2022-11-05T21:01:34.617Z,9.90
2022-11-05T21:04:02.897Z,9.30
2022-11-05T21:06:30.846Z,10.63
2022-11-05T21:08:58.710Z,9.23
2022-11-05T21:11:26.437Z,11.03
2022-11-05T21:13:54.769Z,12.90
2022-11-05T21:16:23.908Z,11.70
2022-11-05T21:18:51.617Z,9.60
2022-11-05T21:21:21.221Z,9.87
2022-11-05T21:23:49.207Z,9.03
2022-11-05T21:26:18.629Z,10.93
2022-11-05T21:28:46.577Z,11.07
2022-11-05T21:31:14.720Z,10.87
2022-11-05T21:33:43.801Z,10.00
2022-11-05T21:36:13.726Z,8.10
2022-11-05T21:38:42.050Z,10.53
2022-11-05T21:41:12.378Z,9.63
2022-11-05T21:43:41.700Z,9.37
2022-11-05T21:46:10.738Z,8.97
2022-11-05T21:48:38.507Z,10.87
2022-11-05T21:51:25.416Z,9.87
2022-11-05T21:54:10.969Z,17.80
2022-11-05T21:56:56.678Z,11.93
2022-11-05T21:59:43.100Z,12.50
2022-11-05T22:02:13.001Z,11.77
2022-11-05T22:04:42.496Z,10.00
2022-11-05T22:07:13.267Z,13.93
2022-11-05T22:09:41.152Z,10.63
2022-11-05T22:12:09.513Z,11.17
2022-11-05T22:14:37.632Z,9.40
2022-11-05T22:17:05.893Z,10.40
2022-11-05T22:19:34.166Z,13.20
2022-11-05T22:22:02.374Z,10.53
2022-11-05T22:24:31.967Z,8.60
2022-11-05T22:27:00.398Z,10.70
2022-11-05T22:29:28.791Z,14.83
2022-11-05T22:31:57.034Z,17.53
2022-11-05T22:34:25.135Z,11.80
2022-11-05T22:36:53.482Z,11.27
2022-11-05T22:39:21.777Z,10.40
2022-11-05T22:41:53.914Z,11.67
2022-11-05T22:44:22.094Z,11.50
2022-11-05T22:46:50.086Z,10.00
2022-11-05T22:49:18.302Z,11.03
2022-11-05T22:51:46.393Z,8.53
2022-11-05T22:54:14.386Z,11.33
2022-11-05T22:56:43.413Z,11.43
2022-11-05T22:59:14.954Z,12.00
2022-11-05T23:01:43.938Z,9.90
2022-11-05T23:04:13.345Z,9.50
2022-11-05T23:06:58.738Z,10.73
2022-11-05T23:09:46.712Z,9.13
2022-11-05T23:12:24.190Z,10.50
2022-11-05T23:14:53.735Z,8.83
2022-11-05T23:17:39.558Z,6.67
2022-11-05T23:20:28.960Z,7.90
2022-11-05T23:23:14.504Z,10.07
2022-11-05T23:25:42.370Z,8.33
2022-11-05T23:28:11.459Z,10.63
2022-11-05T23:31:05.067Z,11.67
2022-11-05T23:33:34.674Z,9.30
2022-11-05T23:36:20.152Z,9.60
2022-11-05T23:38:47.927Z,11.07
2022-11-05T23:41:33.139Z,9.90
2022-11-05T23:44:18.547Z,8.07
2022-11-05T23:47:05.328Z,7.23
2022-11-05T23:49:33.210Z,6.07
2022-11-05T23:52:00.883Z,9.60
2022-11-05T23:54:29.436Z,9.53
2022-11-05T23:56:57.116Z,6.67
2022-11-05T23:59:24.806Z,13.03
